Impacts METAR Board INFO
IDs:

KSTL - St Louis/Lambert Int, MO, US

Updated at: 1529 UTC 17 Dec 2017
Potential Impact None Slight Moderate High
Time17/03Z 17/04Z 17/05Z 17/06Z 17/07Z 17/08Z 17/09Z 17/10Z 17/11Z 17/12Z 17/13Z 17/14Z 17/15Z
VIS10 10 10 10 10 10 10 10 10 10 10 10 10
CIG250 250 250 200 180 180 150 130 110 100 90 55 65
CoverOVCOVCOVCOVCOVCOVCOVCOVCOVCOVCOVCOVCOVC
FltCatVFRVFRVFRVFRVFRVFRVFRVFRVFRVFRVFRVFRVFR
WX--------------------------
WDir1801801701802001601901801301601701200
WSpd5 7 5 6 6 3 4 3 4 4 3 4 0
WGst-- -- -- -- -- -- -- -- -- -- -- -- --
Raw hourly METARs
KSTL 170251Z 18005KT 10SM OVC250 09/M02 A3005 RMK AO2 SLP182 T00891017 51018
KSTL 170351Z 18007KT 10SM OVC250 09/M02 A3005 RMK AO2 SLP179 T00891017
KSTL 170451Z 17005KT 10SM OVC250 08/M02 A3006 RMK AO2 SLP182 T00831017
KSTL 170551Z 18006KT 10SM OVC200 07/M02 A3007 RMK AO2 SLP184 T00721017 10128 20072 401670022 53006
KSTL 170651Z 20006KT 10SM OVC180 08/M02 A3008 RMK AO2 SLP186 T00781017
KSTL 170751Z 16003KT 10SM OVC180 06/M01 A3006 RMK AO2 SLP178 T00611011
KSTL 170851Z 19004KT 10SM OVC150 07/M01 A3008 RMK AO2 SLP185 T00721011 53002
KSTL 170951Z 18003KT 10SM OVC130 07/M01 A3008 RMK AO2 SLP187 T00721011
KSTL 171051Z 13004KT 10SM OVC110 07/M01 A3006 RMK AO2 SLP181 T00721011
KSTL 171151Z 16004KT 10SM OVC100 07/M01 A3006 RMK AO2 SLP181 T00721011 10078 20056 58005
KSTL 171251Z 17003KT 10SM OVC090 07/M01 A3005 RMK AO2 SLP177 T00721011
KSTL 171351Z 12004KT 10SM BKN055 OVC075 07/01 A3006 RMK AO2 RAB16E32 SLP182 P0000 T00720006
KSTL 171451Z 00000KT 10SM OVC065 08/01 A3007 RMK AO2 SLP184 60000 T00780006 53002